createdAt,value
2019-05-06T00:01:19.442Z,99112.67
2019-05-06T00:03:51.324Z,99113.72
2019-05-06T00:06:23.641Z,99114.89
2019-05-06T00:08:55.327Z,99120.27
2019-05-06T00:11:27.075Z,99114.89
2019-05-06T00:13:59.040Z,99112.50
2019-05-06T00:16:30.804Z,99112.24
2019-05-06T00:19:04.856Z,99113.29
2019-05-06T00:21:36.060Z,99111.03
2019-05-06T00:24:08.719Z,99108.28
2019-05-06T00:26:44.947Z,99108.99
2019-05-06T00:29:18.398Z,99107.65
2019-05-06T00:31:49.953Z,99103.64
2019-05-06T00:34:21.499Z,99111.70
2019-05-06T00:36:54.477Z,99107.16
2019-05-06T00:39:36.892Z,99110.30
2019-05-06T00:42:16.158Z,99116.23
2019-05-06T00:44:47.884Z,99112.03
2019-05-06T00:47:19.436Z,99115.55
2019-05-06T00:49:51.093Z,99110.05
2019-05-06T00:52:23.915Z,99106.97
2019-05-06T00:54:56.043Z,99100.52
2019-05-06T00:57:29.230Z,99091.54
2019-05-06T01:00:00.790Z,99098.45
2019-05-06T01:02:34.251Z,99097.72
2019-05-06T01:05:06.962Z,99095.47
2019-05-06T01:07:38.821Z,99101.83
2019-05-06T01:10:11.441Z,99104.27
2019-05-06T01:12:44.737Z,99101.15
2019-05-06T01:15:18.402Z,99090.05
2019-05-06T01:17:50.056Z,99087.84
2019-05-06T01:20:24.628Z,99085.31
2019-05-06T01:22:56.065Z,99079.58
2019-05-06T01:25:27.906Z,99085.01
2019-05-06T01:27:59.644Z,99085.70
2019-05-06T01:30:33.573Z,99083.73
2019-05-06T01:33:05.117Z,99083.20
2019-05-06T01:35:37.693Z,99080.35
2019-05-06T01:38:24.208Z,99079.54
2019-05-06T01:41:00.659Z,99072.88
2019-05-06T01:43:40.191Z,99075.52
2019-05-06T01:46:13.905Z,99070.33
2019-05-06T01:48:48.412Z,99067.98
2019-05-06T01:51:23.910Z,99069.44
2019-05-06T01:53:54.999Z,99072.98
2019-05-06T01:56:26.857Z,99068.82
2019-05-06T01:58:58.758Z,99068.87
2019-05-06T02:01:30.472Z,99061.60
2019-05-06T02:04:04.207Z,99062.64
2019-05-06T02:06:35.525Z,99051.09
2019-05-06T02:09:10.966Z,99049.02
2019-05-06T02:11:44.227Z,99050.41
2019-05-06T02:14:15.915Z,99052.39
2019-05-06T02:16:47.469Z,99046.97
2019-05-06T02:19:19.363Z,99047.67
2019-05-06T02:21:54.305Z,99051.73
2019-05-06T02:24:30.115Z,99044.09
2019-05-06T02:27:01.970Z,99044.17
2019-05-06T02:29:35.270Z,99044.67
2019-05-06T02:32:24.531Z,99041.88
2019-05-06T02:34:46.328Z,99037.73
2019-05-06T02:37:34.723Z,99039.81
2019-05-06T02:40:07.696Z,99042.54
2019-05-06T02:42:39.348Z,99037.22
2019-05-06T02:45:12.766Z,99039.02
2019-05-06T02:47:55.157Z,99034.25
2019-05-06T02:50:28.759Z,99034.72
2019-05-06T02:53:02.741Z,99041.86
2019-05-06T02:55:36.247Z,99042.50
2019-05-06T02:58:06.585Z,99035.88
2019-05-06T03:00:39.110Z,99035.13
2019-05-06T03:03:13.846Z,99041.36
2019-05-06T03:05:44.322Z,99035.78
2019-05-06T03:08:15.804Z,99033.55
2019-05-06T03:10:48.531Z,99030.75
2019-05-06T03:13:23.340Z,99024.80
2019-05-06T03:15:54.384Z,99025.20
2019-05-06T03:18:26.068Z,99033.18
2019-05-06T03:20:59.600Z,99029.75
2019-05-06T03:23:44.748Z,99030.52
2019-05-06T03:26:16.532Z,99032.15
2019-05-06T03:28:48.263Z,99034.05
2019-05-06T03:31:25.330Z,99043.31
2019-05-06T03:34:16.328Z,99041.60
2019-05-06T03:36:33.046Z,99036.28
2019-05-06T03:38:59.603Z,99040.30
2019-05-06T03:41:33.846Z,99049.52
2019-05-06T03:44:04.942Z,99056.80
2019-05-06T03:46:54.179Z,99057.67
2019-05-06T03:49:28.447Z,99067.25
2019-05-06T03:52:02.542Z,99066.39
2019-05-06T03:54:35.115Z,99071.87
2019-05-06T03:57:06.573Z,99069.96
2019-05-06T03:59:39.503Z,99070.72
2019-05-06T04:02:13.226Z,99075.28
2019-05-06T04:04:45.631Z,99081.92
2019-05-06T04:07:18.107Z,99081.84
2019-05-06T04:09:49.678Z,99091.55
2019-05-06T04:12:23.408Z,99100.03
2019-05-06T04:14:54.604Z,99099.95
2019-05-06T04:17:27.874Z,99112.57
2019-05-06T04:20:12.913Z,99104.94
2019-05-06T04:22:58.244Z,99104.63
2019-05-06T04:25:43.204Z,99100.26
2019-05-06T04:28:23.799Z,99107.61
2019-05-06T04:30:55.151Z,99099.80
2019-05-06T04:33:27.106Z,99091.64
2019-05-06T04:35:59.359Z,99095.02
2019-05-06T04:38:33.517Z,99089.83
2019-05-06T04:41:04.619Z,99088.56
2019-05-06T04:43:36.373Z,99086.52
2019-05-06T04:46:08.130Z,99083.87
2019-05-06T04:48:39.815Z,99074.03
2019-05-06T04:51:13.572Z,99077.28
2019-05-06T04:53:45.446Z,99090.45
2019-05-06T04:56:17.117Z,99093.47
2019-05-06T04:58:49.279Z,99088.72
2019-05-06T05:01:23.170Z,99084.70
2019-05-06T05:03:54.223Z,99086.30
2019-05-06T05:06:25.922Z,99094.23
2019-05-06T05:08:57.951Z,99079.52
2019-05-06T05:11:33.285Z,99080.24
2019-05-06T05:14:25.961Z,99073.56
2019-05-06T05:16:58.712Z,99077.70
2019-05-06T05:19:32.742Z,99076.08
2019-05-06T05:22:07.455Z,99064.55
2019-05-06T05:24:42.556Z,99074.70
2019-05-06T05:27:15.068Z,99065.33
2019-05-06T05:29:46.855Z,99061.69
2019-05-06T05:32:18.894Z,99070.10
2019-05-06T05:34:52.236Z,99066.14
2019-05-06T05:37:24.448Z,99071.63
2019-05-06T05:39:56.519Z,99069.06
2019-05-06T05:42:48.758Z,99068.28
2019-05-06T05:45:22.170Z,99060.52
2019-05-06T05:47:55.453Z,99061.93
2019-05-06T05:50:28.890Z,99070.11
2019-05-06T05:53:02.456Z,99066.23
2019-05-06T05:55:34.500Z,99065.75
2019-05-06T05:58:06.369Z,99064.19
2019-05-06T06:00:38.150Z,99062.41
2019-05-06T06:03:09.885Z,99061.61
2019-05-06T06:05:42.855Z,99062.18
2019-05-06T06:08:14.930Z,99063.87
2019-05-06T06:11:00.103Z,99065.70
2019-05-06T06:13:32.151Z,99073.49
2019-05-06T06:16:08.164Z,99068.79
2019-05-06T06:18:52.342Z,99063.39
2019-05-06T06:21:32.319Z,99068.84
2019-05-06T06:24:17.112Z,99062.03
2019-05-06T06:26:48.618Z,99078.13
2019-05-06T06:29:22.659Z,99069.27
2019-05-06T06:32:13.890Z,99068.54
2019-05-06T06:34:47.484Z,99069.38
2019-05-06T06:37:26.737Z,99077.36
2019-05-06T06:40:02.554Z,99071.02
2019-05-06T06:42:33.689Z,99074.19
2019-05-06T06:45:06.421Z,99073.13
2019-05-06T06:47:38.117Z,99073.01
2019-05-06T06:50:09.989Z,99089.58
2019-05-06T06:52:42.167Z,99082.53
2019-05-06T06:55:14.230Z,99078.98
2019-05-06T06:58:04.409Z,99073.05
2019-05-06T07:00:38.219Z,99077.20
2019-05-06T07:03:12.313Z,99068.36
2019-05-06T07:06:03.650Z,99058.85
2019-05-06T07:08:37.770Z,99076.25
2019-05-06T07:11:08.622Z,99064.97
2019-05-06T07:13:43.200Z,99067.45
2019-05-06T07:16:14.984Z,99067.09
2019-05-06T07:18:46.712Z,99062.57
2019-05-06T07:21:25.935Z,99057.41
2019-05-06T07:23:57.830Z,99058.34
2019-05-06T07:26:31.790Z,99055.48
2019-05-06T07:29:13.653Z,99059.80
2019-05-06T07:31:36.848Z,99072.77
2019-05-06T07:34:08.657Z,99062.63
2019-05-06T07:36:40.484Z,99060.69
2019-05-06T07:39:15.328Z,99073.03
2019-05-06T07:41:53.279Z,99070.41
2019-05-06T07:44:28.604Z,99070.34
2019-05-06T07:47:04.513Z,99048.86
2019-05-06T07:49:36.295Z,99049.70
2019-05-06T07:52:08.027Z,99057.90
2019-05-06T07:54:39.636Z,99038.69
2019-05-06T07:57:12.739Z,99032.37
2019-05-06T07:59:44.445Z,99046.23
2019-05-06T08:02:16.181Z,99050.28
2019-05-06T08:04:48.032Z,99052.20
2019-05-06T08:07:22.141Z,99039.73
2019-05-06T08:09:53.420Z,99029.52
2019-05-06T08:12:25.364Z,99031.06
2019-05-06T08:14:57.057Z,99035.27
2019-05-06T08:17:33.123Z,99039.86
2019-05-06T08:20:06.469Z,99022.87
2019-05-06T08:22:43.767Z,99022.06
2019-05-06T08:25:15.479Z,99026.63
2019-05-06T08:27:49.530Z,99019.38
2019-05-06T08:30:22.934Z,99014.94
2019-05-06T08:32:53.975Z,99016.38
2019-05-06T08:35:25.651Z,99009.34
2019-05-06T08:37:57.399Z,99019.84
2019-05-06T08:40:29.230Z,99020.41
2019-05-06T08:43:02.191Z,99024.60
2019-05-06T08:45:34.017Z,99019.34
2019-05-06T08:48:05.737Z,99032.48
2019-05-06T08:50:39.136Z,99011.56
2019-05-06T08:53:18.007Z,99009.10
2019-05-06T08:55:52.915Z,99015.12
2019-05-06T08:58:43.215Z,99011.31
2019-05-06T09:01:29.579Z,99014.08
2019-05-06T09:04:11.376Z,99003.30
2019-05-06T09:06:34.732Z,99025.45
2019-05-06T09:09:08.691Z,99010.17
2019-05-06T09:11:42.888Z,99013.11
2019-05-06T09:14:14.263Z,99010.17
2019-05-06T09:16:45.928Z,99003.31
2019-05-06T09:19:17.430Z,98997.91
2019-05-06T09:21:49.227Z,98992.30
2019-05-06T09:24:22.950Z,98989.39
2019-05-06T09:26:55.558Z,98992.96
2019-05-06T09:29:28.535Z,98998.28
2019-05-06T09:32:04.703Z,98995.73
2019-05-06T09:34:52.789Z,99005.89
2019-05-06T09:37:24.990Z,98993.88
2019-05-06T09:39:56.691Z,99005.91
2019-05-06T09:42:28.223Z,98995.87
2019-05-06T09:45:02.216Z,98998.75
2019-05-06T09:47:47.010Z,98997.65
2019-05-06T09:50:23.043Z,98992.05
2019-05-06T09:52:54.729Z,98989.39
2019-05-06T09:55:33.937Z,98984.84
2019-05-06T09:58:07.451Z,98990.31
2019-05-06T10:00:43.722Z,98976.28
2019-05-06T10:03:15.576Z,98979.23
2019-05-06T10:05:47.322Z,98980.69
2019-05-06T10:08:19.109Z,98975.11
2019-05-06T10:10:56.729Z,98973.61
2019-05-06T11:56:16.151Z,98928.55
2019-05-06T11:58:49.464Z,98931.28
2019-05-06T12:01:43.311Z,98934.00
2019-05-06T12:04:14.271Z,98937.06
2019-05-06T12:06:47.208Z,98940.13
2019-05-06T12:09:19.012Z,98937.23
2019-05-06T12:11:52.670Z,98934.43
2019-05-06T12:14:24.034Z,98933.87
2019-05-06T12:16:57.086Z,98929.20
2019-05-06T12:19:28.555Z,98925.79
2019-05-06T12:22:00.420Z,98925.73
2019-05-06T12:24:31.880Z,98925.47
2019-05-06T12:27:03.447Z,98925.58
2019-05-06T12:29:38.024Z,98930.08
2019-05-06T12:32:22.622Z,98930.88
2019-05-06T12:34:54.137Z,98922.16
2019-05-06T12:37:27.793Z,98928.73
2019-05-06T12:39:59.333Z,98925.39
2019-05-06T12:42:33.136Z,98922.40
2019-05-06T12:45:07.014Z,98927.34
2019-05-06T12:47:42.507Z,98920.69
2019-05-06T12:50:13.815Z,98917.69
2019-05-06T12:52:45.362Z,98918.01
2019-05-06T12:55:21.867Z,98915.39
2019-05-06T12:57:53.021Z,98911.61
2019-05-06T13:00:25.525Z,98904.20
2019-05-06T13:02:56.987Z,98903.13
2019-05-06T13:05:28.461Z,98906.58
2019-05-06T13:08:04.381Z,98897.78
2019-05-06T13:10:33.710Z,98890.67
2019-05-06T13:13:05.871Z,98897.77
2019-05-06T13:15:37.264Z,98891.21
2019-05-06T13:18:09.223Z,98893.38
2019-05-06T13:20:48.286Z,98892.41
2019-05-06T13:23:35.589Z,98881.31
2019-05-06T13:26:08.318Z,98884.65
2019-05-06T13:28:42.554Z,98885.34
2019-05-06T13:31:20.911Z,98873.77
2019-05-06T13:33:55.160Z,98878.83
2019-05-06T13:36:27.035Z,98878.12
2019-05-06T13:39:13.494Z,98874.17
2019-05-06T13:41:33.910Z,98871.58
2019-05-06T13:44:09.585Z,98875.17
2019-05-06T13:46:42.652Z,98878.82
2019-05-06T13:49:22.806Z,98874.67
2019-05-06T13:52:03.381Z,98869.78
2019-05-06T13:54:32.270Z,98859.94
2019-05-06T13:57:03.960Z,98861.79
2019-05-06T13:59:37.213Z,98854.95
2019-05-06T14:02:11.630Z,98856.63
2019-05-06T14:04:44.272Z,98860.22
2019-05-06T14:07:16.275Z,98861.30
2019-05-06T14:09:48.272Z,98848.48
2019-05-06T14:12:22.083Z,98838.16
2019-05-06T14:14:53.238Z,98847.55
2019-05-06T14:17:25.138Z,98841.70
2019-05-06T14:19:56.796Z,98838.45
2019-05-06T14:22:28.452Z,98838.73
2019-05-06T14:25:01.907Z,98839.12
2019-05-06T14:27:33.336Z,98836.17
2019-05-06T14:30:12.135Z,98826.94
2019-05-06T14:32:43.639Z,98828.29
2019-05-06T14:35:15.490Z,98817.70
2019-05-06T14:37:46.895Z,98823.62
2019-05-06T14:40:22.434Z,98821.03
2019-05-06T14:42:53.327Z,98818.56
2019-05-06T14:45:25.385Z,98816.81
2019-05-06T14:47:57.164Z,98813.23
2019-05-06T14:50:33.471Z,98807.16
2019-05-06T14:53:02.776Z,98803.08
2019-05-06T14:55:35.966Z,98802.25
2019-05-06T14:58:07.911Z,98800.67
2019-05-06T15:00:39.688Z,98795.94
2019-05-06T15:03:12.938Z,98795.61
2019-05-06T15:05:44.654Z,98789.85
2019-05-06T15:08:16.148Z,98788.38
2019-05-06T15:10:49.515Z,98784.95
2019-05-06T15:13:22.845Z,98775.81
2019-05-06T15:15:55.433Z,98774.32
2019-05-06T15:18:26.925Z,98775.31
2019-05-06T15:21:27.514Z,98772.81
2019-05-06T15:23:31.953Z,98765.48
2019-05-06T15:26:03.727Z,98768.25
2019-05-06T15:28:35.447Z,98771.14
2019-05-06T15:31:23.794Z,98769.00
2019-05-06T15:34:03.226Z,98763.26
2019-05-06T15:36:39.821Z,98762.91
2019-05-06T15:39:13.222Z,98762.91
2019-05-06T15:41:44.848Z,98759.30
2019-05-06T15:44:16.615Z,98765.05
2019-05-06T15:46:48.667Z,98765.05
2019-05-06T15:49:22.284Z,98758.87
2019-05-06T15:51:54.152Z,98765.77
2019-05-06T15:54:26.541Z,98762.95
2019-05-06T15:56:58.157Z,98763.70
2019-05-06T15:59:33.243Z,98760.11
2019-05-06T16:02:04.249Z,98760.44
2019-05-06T16:04:35.799Z,98757.02
2019-05-06T16:07:07.345Z,98757.84
2019-05-06T16:09:39.299Z,98757.67
2019-05-06T16:12:12.733Z,98756.59
2019-05-06T16:14:44.510Z,98756.09
2019-05-06T16:17:16.522Z,98753.43
2019-05-06T16:19:48.380Z,98751.69
2019-05-06T16:22:22.381Z,98753.25
2019-05-06T16:25:02.633Z,98753.91
2019-05-06T16:27:35.418Z,98747.76
2019-05-06T16:30:09.418Z,98752.97
2019-05-06T16:32:41.958Z,98751.39
2019-05-06T16:35:14.330Z,98752.02
2019-05-06T16:37:47.376Z,98745.94
2019-05-06T16:40:19.448Z,98746.84
2019-05-06T16:42:53.424Z,98736.88
2019-05-06T16:45:24.626Z,98743.69
2019-05-06T16:47:56.491Z,98734.78
2019-05-06T16:50:29.718Z,98738.23
2019-05-06T16:53:02.751Z,98743.52
2019-05-06T16:55:55.506Z,98737.02
2019-05-06T16:58:32.394Z,98741.56
2019-05-06T17:01:04.629Z,98736.23
2019-05-06T17:03:43.775Z,98739.12
2019-05-06T17:06:29.647Z,98740.29
2019-05-06T17:09:16.938Z,98738.73
2019-05-06T17:11:36.233Z,98740.55
2019-05-06T17:14:08.195Z,98738.63
2019-05-06T17:16:42.281Z,98742.13
2019-05-06T17:19:13.143Z,98747.01
2019-05-06T17:21:47.922Z,98744.03
2019-05-06T17:24:18.300Z,98751.00
2019-05-06T17:26:49.749Z,98742.77
2019-05-06T17:29:42.819Z,98742.02
2019-05-06T17:32:16.308Z,98749.77
2019-05-06T17:34:52.838Z,98741.22
2019-05-06T17:37:42.758Z,98743.50
2019-05-06T17:40:16.684Z,98747.77
2019-05-06T17:42:48.631Z,98745.89
2019-05-06T17:45:38.407Z,98742.34
2019-05-06T17:48:12.753Z,98743.17
2019-05-06T17:50:45.915Z,98737.45
2019-05-06T17:53:17.573Z,98742.32
2019-05-06T17:55:49.326Z,98742.68
2019-05-06T17:58:22.054Z,98746.24
2019-05-06T18:00:54.719Z,98740.34
2019-05-06T18:03:26.446Z,98741.17
2019-05-06T18:05:58.381Z,98734.69
2019-05-06T18:08:30.169Z,98735.55
2019-05-06T18:11:01.821Z,98733.67
2019-05-06T18:13:33.378Z,98735.72
2019-05-06T18:16:04.857Z,98743.87
2019-05-06T18:18:36.810Z,98743.49
2019-05-06T18:21:08.565Z,98746.12
2019-05-06T18:23:40.651Z,98745.28
2019-05-06T18:26:12.297Z,98743.77
2019-05-06T18:28:44.064Z,98742.55
2019-05-06T18:31:15.675Z,98745.36
2019-05-06T18:33:47.234Z,98742.91
2019-05-06T18:36:19.088Z,98742.06
2019-05-06T18:38:52.546Z,98742.23
2019-05-06T18:41:24.043Z,98736.88
2019-05-06T18:43:55.650Z,98739.80
2019-05-06T18:46:27.507Z,98744.63
2019-05-06T18:48:59.156Z,98740.71
2019-05-06T18:51:31.123Z,98747.36
2019-05-06T18:54:03.157Z,98745.20
2019-05-06T18:56:35.910Z,98740.98
2019-05-06T18:59:07.874Z,98740.22
2019-05-06T19:01:39.391Z,98739.27
2019-05-06T19:04:12.928Z,98743.22
2019-05-06T19:06:44.612Z,98743.72
2019-05-06T19:09:26.887Z,98745.66
2019-05-06T19:11:58.637Z,98743.31
2019-05-06T19:14:32.464Z,98744.90
2019-05-06T19:17:03.898Z,98743.57
2019-05-06T19:19:35.345Z,98740.38
2019-05-06T19:22:06.819Z,98740.06
2019-05-06T19:24:38.363Z,98738.85
2019-05-06T19:27:10.204Z,98737.52
2019-05-06T19:29:43.262Z,98733.95
2019-05-06T19:32:14.951Z,98740.64
2019-05-06T19:34:46.505Z,98735.17
2019-05-06T19:37:19.296Z,98740.42
2019-05-06T19:39:52.508Z,98745.20
2019-05-06T19:42:24.229Z,98742.14
2019-05-06T19:44:55.994Z,98752.17
2019-05-06T19:47:27.746Z,98745.52
2019-05-06T19:49:59.606Z,98744.05
2019-05-06T19:52:32.671Z,98742.45
2019-05-06T19:55:06.399Z,98743.75
2019-05-06T19:57:38.059Z,98741.81
2019-05-06T20:00:10.073Z,98751.08
2019-05-06T20:02:42.977Z,98750.55
2019-05-06T20:05:22.746Z,98751.89
2019-05-06T20:08:08.174Z,98751.50
2019-05-06T20:10:44.286Z,98749.39
2019-05-06T20:13:16.045Z,98749.90
2019-05-06T20:15:47.699Z,98748.89
2019-05-06T20:18:19.489Z,98748.52
2019-05-06T20:20:52.814Z,98748.33
2019-05-06T20:23:24.408Z,98746.08
2019-05-06T20:25:55.836Z,98751.08
2019-05-06T20:28:27.306Z,98751.97
2019-05-06T20:30:58.858Z,98745.13
2019-05-06T20:33:32.545Z,98746.28
2019-05-06T20:36:04.025Z,98750.28
2019-05-06T20:38:35.481Z,98753.30
2019-05-06T20:41:07.117Z,98753.74
2019-05-06T20:43:38.875Z,98749.08
2019-05-06T20:46:12.434Z,98748.72
2019-05-06T20:48:43.506Z,98750.17
2019-05-06T20:51:14.862Z,98745.27
2019-05-06T20:53:47.620Z,98747.11
2019-05-06T20:56:19.097Z,98744.98
2019-05-06T20:58:52.833Z,98743.61
2019-05-06T21:01:24.365Z,98741.36
2019-05-06T21:03:55.835Z,98739.39
2019-05-06T21:06:28.378Z,98743.47
2019-05-06T21:09:01.982Z,98740.27
2019-05-06T21:11:34.758Z,98744.67
2019-05-06T21:14:06.516Z,98741.36
2019-05-06T21:16:42.115Z,98733.05
2019-05-06T21:19:15.001Z,98734.03
2019-05-06T21:21:46.710Z,98723.62
2019-05-06T21:24:18.364Z,98730.83
2019-05-06T21:26:50.122Z,98732.55
2019-05-06T21:29:23.225Z,98727.27
2019-05-06T21:31:54.656Z,98730.58
2019-05-06T21:34:26.728Z,98724.71
2019-05-06T21:36:58.486Z,98720.50
2019-05-06T21:39:29.928Z,98729.03
2019-05-06T21:42:01.914Z,98724.88
2019-05-06T21:44:33.424Z,98729.73
2019-05-06T21:47:04.795Z,98735.85
2019-05-06T21:49:37.783Z,98731.19
2019-05-06T21:52:09.234Z,98730.69
2019-05-06T21:54:43.257Z,98725.52
2019-05-06T21:57:14.131Z,98723.55
2019-05-06T21:59:45.833Z,98720.55
2019-05-06T22:02:19.430Z,98716.14
2019-05-06T22:04:52.358Z,98723.61
2019-05-06T22:07:24.071Z,98722.00
2019-05-06T22:09:55.627Z,98714.94
2019-05-06T22:12:27.279Z,98712.18
2019-05-06T22:14:58.910Z,98713.94
2019-05-06T22:17:31.993Z,98708.30
2019-05-06T22:20:03.559Z,98707.97
2019-05-06T22:22:36.666Z,98707.52
2019-05-06T22:25:09.040Z,98709.77
2019-05-06T22:27:44.274Z,98704.17
2019-05-06T22:30:13.886Z,98706.03
2019-05-06T22:32:45.982Z,98706.90
2019-05-06T22:35:18.018Z,98707.88
2019-05-06T22:37:49.367Z,98709.53
2019-05-06T22:40:23.530Z,98704.54
2019-05-06T22:42:54.216Z,98701.73
2019-05-06T22:45:25.870Z,98705.75
2019-05-06T22:47:57.515Z,98699.91
2019-05-06T22:50:29.274Z,98703.63
2019-05-06T22:53:02.292Z,98707.33
2019-05-06T22:55:33.815Z,98703.25
2019-05-06T22:58:05.471Z,98702.53
2019-05-06T23:00:38.778Z,98704.25
2019-05-06T23:03:12.393Z,98697.48
2019-05-06T23:05:43.923Z,98699.64
2019-05-06T23:08:15.674Z,98697.08
2019-05-06T23:10:47.554Z,98684.22
2019-05-06T23:13:19.086Z,98690.72
2019-05-06T23:15:52.366Z,98688.87
2019-05-06T23:18:24.398Z,98688.55
2019-05-06T23:20:56.305Z,98686.11
2019-05-06T23:23:28.161Z,98685.59
2019-05-06T23:26:20.092Z,98683.42
2019-05-06T23:28:52.625Z,98678.69
2019-05-06T23:31:24.572Z,98673.57
2019-05-06T23:33:56.132Z,98666.20
2019-05-06T23:36:30.519Z,98675.89
2019-05-06T23:39:42.948Z,98668.84
2019-05-06T23:42:53.495Z,98663.55
2019-05-06T23:46:02.346Z,98661.82
2019-05-06T23:49:10.070Z,98659.95
2019-05-06T23:52:17.810Z,98657.34
2019-05-06T23:55:25.918Z,98657.79
2019-05-06T23:57:56.275Z,98652.78
